createdAt,value
2022-10-12T00:00:39.386Z,102407.28
2022-10-12T00:03:07.193Z,102409.91
2022-10-12T00:05:34.939Z,102410.00
2022-10-12T00:08:02.632Z,102409.19
2022-10-12T00:10:30.332Z,102410.25
2022-10-12T00:12:59.770Z,102419.25
2022-10-12T00:15:27.683Z,102410.53
2022-10-12T00:17:55.368Z,102407.06
2022-10-12T00:20:23.020Z,102412.34
2022-10-12T00:22:50.738Z,102410.53
2022-10-12T00:25:18.504Z,102407.91
2022-10-12T00:27:46.496Z,102406.19
2022-10-12T00:30:15.700Z,102403.84
2022-10-12T00:32:43.390Z,102413.50
2022-10-12T00:35:11.045Z,102409.13
2022-10-12T00:37:39.197Z,102419.69
2022-10-12T00:40:08.293Z,102405.72
2022-10-12T00:42:35.884Z,102416.28
2022-10-12T00:45:03.562Z,102394.69
2022-10-12T00:47:35.210Z,102400.75
2022-10-12T00:50:07.599Z,102395.63
2022-10-12T00:52:40.651Z,102407.72
2022-10-12T00:55:09.687Z,102404.31
2022-10-12T00:57:40.084Z,102404.38
2022-10-12T01:00:12.004Z,102408.97
2022-10-12T01:02:43.026Z,102409.09
2022-10-12T01:05:11.769Z,102401.34
2022-10-12T01:07:39.884Z,102401.34
2022-10-12T01:10:08.457Z,102394.38
2022-10-12T01:12:36.598Z,102394.38
2022-10-12T01:15:05.208Z,102398.78
2022-10-12T01:17:39.621Z,102395.34
2022-10-12T01:20:49.452Z,102390.94
2022-10-12T01:23:58.210Z,102389.22
2022-10-12T01:26:48.327Z,102383.19
2022-10-12T01:29:26.170Z,102384.88
2022-10-12T01:31:59.751Z,102380.97
2022-10-12T01:34:32.206Z,102387.03
2022-10-12T01:37:05.409Z,102384.53
2022-10-12T01:39:36.799Z,102388.03
2022-10-12T01:42:08.010Z,102385.53
2022-10-12T01:44:39.235Z,102377.53
2022-10-12T01:47:11.680Z,102377.53
2022-10-12T01:49:39.377Z,102377.53
2022-10-12T01:52:20.634Z,102381.09
2022-10-12T01:54:56.429Z,102380.25
2022-10-12T01:57:30.211Z,102366.50
2022-10-12T02:00:08.157Z,102374.84
2022-10-12T02:02:44.529Z,102374.13
2022-10-12T02:05:16.494Z,102363.75
2022-10-12T02:07:49.129Z,102370.88
2022-10-12T02:10:19.648Z,102362.16
2022-10-12T02:12:48.183Z,102354.56
2022-10-12T02:15:17.208Z,102363.09
2022-10-12T02:17:49.380Z,102356.06
2022-10-12T02:20:18.490Z,102355.34
2022-10-12T02:22:48.447Z,102354.56
2022-10-12T02:25:18.856Z,102355.56
2022-10-12T02:27:49.195Z,102353.00
2022-10-12T02:30:20.933Z,102338.41
2022-10-12T02:32:56.738Z,102343.50
2022-10-12T02:35:29.437Z,102355.91
2022-10-12T02:38:01.791Z,102355.25
2022-10-12T02:40:33.414Z,102346.50
2022-10-12T02:43:10.359Z,102342.09
2022-10-12T02:45:39.975Z,102336.81
2022-10-12T02:48:10.561Z,102337.72
2022-10-12T02:50:38.514Z,102335.13
2022-10-12T02:53:06.438Z,102328.06
2022-10-12T02:55:38.979Z,102315.22
2022-10-12T02:58:06.686Z,102325.41
2022-10-12T03:00:35.057Z,102330.66
2022-10-12T03:03:02.718Z,102329.81
2022-10-12T03:05:31.753Z,102321.09
2022-10-12T03:07:59.424Z,102328.16
2022-10-12T03:10:27.134Z,102329.06
2022-10-12T03:12:55.465Z,102324.81
2022-10-12T03:15:23.085Z,102324.94
2022-10-12T03:17:50.995Z,102322.38
2022-10-12T03:20:18.602Z,102332.06
2022-10-12T03:22:50.131Z,102320.84
2022-10-12T03:25:18.077Z,102320.88
2022-10-12T03:27:45.791Z,102317.34
2022-10-12T03:30:14.702Z,102313.06
2022-10-12T03:32:42.494Z,102311.28
2022-10-12T03:35:10.812Z,102309.72
2022-10-12T03:37:39.061Z,102312.28
2022-10-12T03:40:10.571Z,102307.94
2022-10-12T03:42:38.226Z,102307.09
2022-10-12T03:45:06.589Z,102312.56
2022-10-12T03:47:34.315Z,102308.06
2022-10-12T03:50:01.938Z,102309.94
2022-10-12T03:52:29.564Z,102308.22
2022-10-12T03:54:57.270Z,102303.09
2022-10-12T03:57:26.431Z,102297.84
2022-10-12T03:59:54.057Z,102287.31
2022-10-12T04:02:21.939Z,102291.72
2022-10-12T04:04:49.556Z,102301.41
2022-10-12T04:07:17.186Z,102295.34
2022-10-12T04:09:45.063Z,102293.72
2022-10-12T04:12:12.795Z,102299.81
2022-10-12T04:14:41.845Z,102301.69
2022-10-12T04:17:09.521Z,102306.00
2022-10-12T04:19:37.147Z,102299.91
2022-10-12T04:22:04.862Z,102303.50
2022-10-12T04:24:32.493Z,102304.44
2022-10-12T04:27:00.194Z,102296.53
2022-10-12T04:29:27.853Z,102299.41
2022-10-12T04:31:56.932Z,102301.16
2022-10-12T04:34:24.588Z,102296.03
2022-10-12T04:36:52.213Z,102297.88
2022-10-12T04:39:19.874Z,102290.84
2022-10-12T04:41:47.591Z,102290.00
2022-10-12T04:44:15.366Z,102291.69
2022-10-12T04:46:42.942Z,102295.25
2022-10-12T04:49:12.482Z,102299.59
2022-10-12T04:51:40.208Z,102296.97
2022-10-12T04:54:07.862Z,102291.91
2022-10-12T04:56:35.496Z,102300.72
2022-10-12T04:59:03.142Z,102295.53
2022-10-12T05:01:30.928Z,102290.25
2022-10-12T05:04:00.192Z,102299.16
2022-10-12T05:06:29.264Z,102294.94
2022-10-12T05:08:56.972Z,102287.97
2022-10-12T05:11:24.678Z,102285.41
2022-10-12T05:13:52.367Z,102294.31
2022-10-12T05:16:20.032Z,102287.38
2022-10-12T05:18:47.750Z,102290.94
2022-10-12T05:21:15.429Z,102290.16
2022-10-12T05:23:44.502Z,102289.38
2022-10-12T05:26:12.225Z,102293.72
2022-10-12T05:28:41.262Z,102290.31
2022-10-12T05:31:09.383Z,102288.56
2022-10-12T05:33:36.988Z,102289.50
2022-10-12T05:36:05.163Z,102292.28
2022-10-12T05:38:32.830Z,102300.16
2022-10-12T05:41:01.867Z,102290.66
2022-10-12T05:43:29.881Z,102296.78
2022-10-12T05:45:57.586Z,102296.88
2022-10-12T05:48:25.367Z,102291.59
2022-10-12T05:50:54.120Z,102296.09
2022-10-12T05:53:21.945Z,102300.44
2022-10-12T05:55:54.073Z,102295.31
2022-10-12T05:58:23.509Z,102285.66
2022-10-12T06:00:51.257Z,102283.09
2022-10-12T06:03:21.087Z,102282.19
2022-10-12T06:05:50.619Z,102276.09
2022-10-12T06:08:18.233Z,102279.66
2022-10-12T06:10:48.302Z,102277.09
2022-10-12T06:13:17.996Z,102274.53
2022-10-12T06:15:47.897Z,102271.97
2022-10-12T06:18:16.214Z,102264.16
2022-10-12T06:20:47.440Z,102276.38
2022-10-12T06:23:15.220Z,102263.28
2022-10-12T06:25:43.116Z,102265.03
2022-10-12T06:28:10.828Z,102259.84
2022-10-12T06:30:38.479Z,102271.19
2022-10-12T06:33:07.553Z,102266.94
2022-10-12T06:35:35.336Z,102276.53
2022-10-12T06:38:03.021Z,102273.13
2022-10-12T06:40:30.703Z,102287.13
2022-10-12T06:43:02.599Z,102269.66
2022-10-12T06:45:30.722Z,102267.06
2022-10-12T06:47:58.566Z,102263.56
2022-10-12T06:50:28.149Z,102272.28
2022-10-12T06:52:56.168Z,102270.44
2022-10-12T06:55:23.779Z,102280.00
2022-10-12T06:57:51.544Z,102267.66
2022-10-12T07:00:19.463Z,102279.78
2022-10-12T07:02:50.006Z,102267.50
2022-10-12T07:05:17.989Z,102269.78
2022-10-12T07:07:47.174Z,102280.13
2022-10-12T07:10:14.942Z,102271.22
2022-10-12T07:12:42.813Z,102270.97
2022-10-12T07:15:11.450Z,102269.78
2022-10-12T07:17:39.535Z,102272.09
2022-10-12T07:20:08.811Z,102268.22
2022-10-12T07:22:36.490Z,102274.84
2022-10-12T07:25:06.315Z,102270.09
2022-10-12T07:27:33.982Z,102274.00
2022-10-12T07:30:02.541Z,102265.53
2022-10-12T07:32:30.244Z,102261.53
2022-10-12T07:34:58.333Z,102277.63
2022-10-12T07:37:26.063Z,102261.22
2022-10-12T07:39:57.191Z,102269.50
2022-10-12T07:42:26.401Z,102270.91
2022-10-12T07:44:54.063Z,102271.38
2022-10-12T07:47:21.751Z,102275.50
2022-10-12T07:49:49.508Z,102271.72
2022-10-12T07:52:17.187Z,102269.94
2022-10-12T07:54:44.880Z,102262.81
2022-10-12T07:57:12.738Z,102267.09
2022-10-12T07:59:41.819Z,102261.66
2022-10-12T08:02:10.740Z,102251.28
2022-10-12T08:04:38.496Z,102262.19
2022-10-12T08:07:06.213Z,102262.03
2022-10-12T08:09:35.861Z,102262.75
2022-10-12T08:12:03.763Z,102266.16
2022-10-12T08:14:31.438Z,102267.84
2022-10-12T08:17:00.427Z,102264.00
2022-10-12T08:19:31.747Z,102257.03
2022-10-12T08:22:02.100Z,102256.84
2022-10-12T08:24:29.788Z,102262.94
2022-10-12T08:27:01.194Z,102263.69
2022-10-12T08:29:29.379Z,102266.25
2022-10-12T08:31:57.070Z,102259.91
2022-10-12T08:34:26.160Z,102259.03
2022-10-12T08:36:53.820Z,102248.50
2022-10-12T08:39:21.821Z,102248.41
2022-10-12T08:41:55.736Z,102252.66
2022-10-12T08:44:33.780Z,102257.75
2022-10-12T08:47:03.966Z,102261.13
2022-10-12T08:49:33.433Z,102263.66
2022-10-12T08:52:06.363Z,102253.88
2022-10-12T08:54:39.695Z,102253.91
2022-10-12T08:57:09.889Z,102255.06
2022-10-12T08:59:37.678Z,102262.47
2022-10-12T09:02:22.154Z,102253.28
2022-10-12T09:04:55.446Z,102244.78
2022-10-12T09:07:27.748Z,102246.84
2022-10-12T09:10:09.818Z,102247.88
2022-10-12T09:12:44.738Z,102254.34
2022-10-12T09:15:16.341Z,102254.00
2022-10-12T09:17:47.931Z,102252.63
2022-10-12T09:20:21.356Z,102247.66
2022-10-12T09:22:50.856Z,102237.84
2022-10-12T09:25:19.425Z,102246.97
2022-10-12T09:27:47.884Z,102247.28
2022-10-12T09:30:17.315Z,102249.31
2022-10-12T09:32:56.216Z,102247.75
2022-10-12T09:35:25.375Z,102245.69
2022-10-12T09:37:54.496Z,102249.94
2022-10-12T09:40:24.428Z,102255.88
2022-10-12T09:42:52.775Z,102252.28
2022-10-12T09:45:21.500Z,102248.72
2022-10-12T09:48:19.218Z,102250.91
2022-10-12T09:50:51.486Z,102245.72
2022-10-12T09:53:28.346Z,102258.09
2022-10-12T09:56:05.683Z,102251.88
2022-10-12T09:58:39.024Z,102246.56
2022-10-12T10:01:16.495Z,102239.00
2022-10-12T10:03:44.419Z,102247.19
2022-10-12T10:06:15.266Z,102241.53
2022-10-12T10:08:44.367Z,102246.19
2022-10-12T10:11:17.275Z,102241.91
2022-10-12T10:13:48.812Z,102240.88
2022-10-12T10:16:17.185Z,102236.00
2022-10-12T10:18:48.537Z,102233.72
2022-10-12T10:21:26.242Z,102225.69
2022-10-12T10:23:55.638Z,102221.81
2022-10-12T10:26:25.100Z,102231.19
2022-10-12T10:28:57.762Z,102230.41
2022-10-12T10:31:28.037Z,102212.38
2022-10-12T10:34:12.665Z,102221.94
2022-10-12T10:36:46.944Z,102207.94
2022-10-12T10:39:19.200Z,102198.59
2022-10-12T10:41:46.879Z,102199.34
2022-10-12T10:44:25.259Z,102192.66
2022-10-12T10:46:53.722Z,102191.69
2022-10-12T10:49:26.019Z,102179.47
2022-10-12T10:51:56.889Z,102183.09
2022-10-12T10:54:28.907Z,102172.22
2022-10-12T10:57:00.536Z,102174.78
2022-10-12T10:59:36.990Z,102177.28
2022-10-12T11:02:13.151Z,102176.63
2022-10-12T11:04:43.009Z,102176.81
2022-10-12T11:07:19.314Z,102174.44
2022-10-12T11:09:49.044Z,102169.13
2022-10-12T11:12:19.650Z,102172.13
2022-10-12T11:14:50.243Z,102167.03
2022-10-12T11:17:21.617Z,102162.69
2022-10-12T11:19:51.798Z,102152.91
2022-10-12T11:22:23.313Z,102154.72
2022-10-12T11:24:54.488Z,102157.81
2022-10-12T11:27:26.646Z,102159.63
2022-10-12T11:30:08.398Z,102162.41
2022-10-12T11:32:39.465Z,102148.34
2022-10-12T11:35:11.216Z,102154.91
2022-10-12T11:37:41.370Z,102144.81
2022-10-12T11:40:17.429Z,102142.94
2022-10-12T11:42:45.079Z,102141.81
2022-10-12T11:45:20.331Z,102132.16
2022-10-12T11:47:49.234Z,102145.47
2022-10-12T11:50:26.409Z,102132.38
2022-10-12T11:52:56.024Z,102129.81
2022-10-12T11:55:36.806Z,102124.75
2022-10-12T11:58:13.262Z,102134.47
2022-10-12T12:00:51.169Z,102121.28
2022-10-12T12:03:22.287Z,102117.31
2022-10-12T12:05:49.994Z,102111.75
2022-10-12T12:08:57.957Z,102108.25
2022-10-12T12:11:27.158Z,102107.63
2022-10-12T12:14:47.630Z,102112.47
2022-10-12T12:17:26.912Z,102110.53
2022-10-12T12:19:59.401Z,102108.84
2022-10-12T12:22:32.513Z,102118.91
2022-10-12T12:25:21.581Z,102108.00
2022-10-12T12:27:52.191Z,102106.41
2022-10-12T12:30:33.228Z,102094.34
2022-10-12T12:33:02.629Z,102097.97
2022-10-12T12:35:33.645Z,102096.28
2022-10-12T12:38:20.438Z,102079.69
2022-10-12T12:41:01.606Z,102059.72
2022-10-12T12:43:57.264Z,102070.13
2022-10-12T12:46:27.787Z,102070.59
2022-10-12T12:49:00.887Z,102079.22
2022-10-12T12:51:37.872Z,102073.16
2022-10-12T12:54:08.050Z,102050.28
2022-10-12T12:56:42.517Z,102034.31
2022-10-12T12:59:25.732Z,102028.28
2022-10-12T13:02:10.405Z,102028.28
2022-10-12T13:05:11.582Z,102026.09
2022-10-12T13:07:52.773Z,102015.47
2022-10-12T13:10:40.678Z,102029.00
2022-10-12T13:13:29.423Z,102037.72
2022-10-12T13:16:11.759Z,102024.41
2022-10-12T13:18:50.976Z,102022.22
2022-10-12T13:21:20.117Z,102016.66
2022-10-12T13:23:50.139Z,102017.50
2022-10-12T13:26:22.593Z,102018.34
2022-10-12T13:28:52.181Z,102013.41
2022-10-12T13:31:21.728Z,102015.69
2022-10-12T13:33:55.284Z,102013.78
2022-10-12T13:36:26.190Z,102006.75
2022-10-12T13:38:56.877Z,102000.47
2022-10-12T13:41:25.539Z,101997.91
2022-10-12T13:43:56.803Z,102003.97
2022-10-12T13:46:40.831Z,102009.16
2022-10-12T13:49:15.511Z,102013.66
2022-10-12T13:51:44.598Z,102005.03
2022-10-12T13:54:19.416Z,102009.91
2022-10-12T13:56:48.063Z,102006.41
2022-10-12T13:59:19.555Z,102006.00
2022-10-12T14:01:52.134Z,101998.88
2022-10-12T14:04:20.308Z,101991.72
2022-10-12T14:06:49.561Z,101993.44
2022-10-12T14:09:19.967Z,101987.50
2022-10-12T14:11:48.264Z,101995.38
2022-10-12T14:14:20.986Z,102000.47
2022-10-12T14:16:56.914Z,102003.84
2022-10-12T14:19:36.065Z,101990.28
2022-10-12T14:22:04.164Z,101990.75
2022-10-12T14:24:32.352Z,101993.16
2022-10-12T14:27:01.354Z,101983.25
2022-10-12T14:29:34.427Z,101979.00
2022-10-12T14:32:03.476Z,101977.59
2022-10-12T14:34:40.882Z,101973.47
2022-10-12T14:37:25.086Z,101981.44
2022-10-12T14:39:59.785Z,101985.69
2022-10-12T14:42:32.759Z,101986.63
2022-10-12T14:45:02.575Z,101983.03
2022-10-12T14:50:00.703Z,101994.88
2022-10-12T14:52:31.110Z,101987.03
2022-10-12T14:55:00.125Z,101977.72
2022-10-12T14:57:30.246Z,101973.50
2022-10-12T14:59:58.182Z,101965.03
2022-10-12T15:02:27.863Z,101959.59
2022-10-12T15:04:56.303Z,101964.19
2022-10-12T15:08:18.823Z,101970.22
2022-10-12T15:10:46.908Z,101967.28
2022-10-12T15:13:14.623Z,101967.66
2022-10-12T15:15:44.216Z,101958.34
2022-10-12T15:18:11.890Z,101956.03
2022-10-12T15:20:39.799Z,101957.25
2022-10-12T15:23:07.943Z,101967.25
2022-10-12T15:25:43.777Z,101951.91
2022-10-12T15:28:11.522Z,101953.00
2022-10-12T15:30:52.056Z,101960.00
2022-10-12T15:33:26.091Z,101978.88
2022-10-12T15:35:53.735Z,101969.19
2022-10-12T15:38:22.387Z,101954.44
2022-10-12T15:40:52.750Z,101957.09
2022-10-12T15:43:20.723Z,101942.25
2022-10-12T15:45:48.562Z,101936.09
2022-10-12T15:48:16.314Z,101939.72
2022-10-12T15:50:45.546Z,101928.44
2022-10-12T15:53:15.899Z,101920.72
2022-10-12T15:55:43.580Z,101926.63
2022-10-12T15:58:12.699Z,101924.94
2022-10-12T16:00:40.813Z,101919.88
2022-10-12T16:03:08.679Z,101923.59
2022-10-12T16:05:37.958Z,101925.41
2022-10-12T16:08:06.491Z,101915.88
2022-10-12T16:10:36.824Z,101938.09
2022-10-12T16:13:06.710Z,101928.66
2022-10-12T16:15:37.194Z,101928.78
2022-10-12T16:18:06.920Z,101931.44
2022-10-12T16:20:37.084Z,101934.09
2022-10-12T16:23:06.237Z,101928.78
2022-10-12T16:25:34.080Z,101935.06
2022-10-12T16:28:01.800Z,101923.72
2022-10-12T16:30:29.466Z,101937.97
2022-10-12T16:32:58.573Z,101935.53
2022-10-12T16:35:26.262Z,101928.66
2022-10-12T16:37:53.901Z,101926.31
2022-10-12T16:40:21.550Z,101931.66
2022-10-12T16:42:53.250Z,101940.81
2022-10-12T16:45:20.968Z,101941.03
2022-10-12T16:47:50.363Z,101937.06
2022-10-12T16:50:20.563Z,101927.84
2022-10-12T16:52:48.300Z,101941.59
2022-10-12T16:55:16.345Z,101939.19
2022-10-12T16:57:44.043Z,101957.06
2022-10-12T17:00:14.586Z,101952.41
2022-10-12T17:02:42.220Z,101951.56
2022-10-12T17:05:10.303Z,101960.50
2022-10-12T17:07:39.326Z,101953.59
2022-10-12T17:10:07.802Z,101953.91
2022-10-12T17:12:36.214Z,101954.16
2022-10-12T17:15:03.976Z,101972.84
2022-10-12T17:17:31.631Z,101971.25
2022-10-12T17:19:59.362Z,101957.25
2022-10-12T17:22:27.073Z,101947.84
2022-10-12T17:24:56.084Z,101948.78
2022-10-12T17:27:25.578Z,101943.56
2022-10-12T17:29:56.296Z,101961.31
2022-10-12T17:32:23.982Z,101966.72
2022-10-12T17:34:51.649Z,101955.50
2022-10-12T17:37:19.491Z,101949.56
2022-10-12T17:39:48.395Z,101935.44
2022-10-12T17:42:18.717Z,101927.09
2022-10-12T17:44:46.560Z,101935.56
2022-10-12T17:47:14.732Z,101938.34
2022-10-12T17:49:42.646Z,101939.63
2022-10-12T17:52:10.269Z,101949.38
2022-10-12T17:54:38.147Z,101951.31
2022-10-12T17:57:05.779Z,101942.59
2022-10-12T17:59:34.874Z,101942.00
2022-10-12T18:02:02.567Z,101929.81
2022-10-12T18:04:30.234Z,101934.16
2022-10-12T18:06:57.886Z,101927.16
2022-10-12T18:09:25.558Z,101933.63
2022-10-12T18:11:54.392Z,101940.84
2022-10-12T18:14:22.083Z,101937.66
2022-10-12T18:16:51.095Z,101930.78
2022-10-12T18:19:18.795Z,101923.88
2022-10-12T18:21:46.528Z,101926.75
2022-10-12T18:24:17.438Z,101920.84
2022-10-12T18:26:46.216Z,101924.44
2022-10-12T18:29:13.969Z,101917.78
2022-10-12T18:31:41.666Z,101916.09
2022-10-12T18:34:10.914Z,101916.16
2022-10-12T18:36:39.855Z,101919.91
2022-10-12T18:39:07.550Z,101918.53
2022-10-12T18:41:35.241Z,101910.69
2022-10-12T18:44:03.679Z,101912.59
2022-10-12T18:46:33.298Z,101911.88
2022-10-12T18:49:02.752Z,101908.69
2022-10-12T18:51:33.117Z,101908.81
2022-10-12T18:54:01.829Z,101904.78
2022-10-12T18:56:30.261Z,101910.31
2022-10-12T18:58:59.641Z,101917.59
2022-10-12T19:01:28.926Z,101910.91
2022-10-12T19:03:58.032Z,101921.00
2022-10-12T19:06:28.534Z,101915.75
2022-10-12T19:08:58.022Z,101917.91
2022-10-12T19:11:27.213Z,101893.00
2022-10-12T19:13:57.016Z,101901.56
2022-10-12T19:16:25.043Z,101897.34
2022-10-12T19:18:57.300Z,101892.13
2022-10-12T19:21:25.142Z,101890.56
2022-10-12T19:23:52.784Z,101896.91
2022-10-12T19:26:24.207Z,101890.53
2022-10-12T19:28:52.223Z,101900.09
2022-10-12T19:31:22.026Z,101899.66
2022-10-12T19:33:49.776Z,101891.81
2022-10-12T19:36:18.889Z,101883.78
2022-10-12T19:38:46.900Z,101885.56
2022-10-12T19:41:15.044Z,101874.97
2022-10-12T19:43:44.178Z,101870.63
2022-10-12T19:46:13.323Z,101863.84
2022-10-12T19:48:42.027Z,101860.16
2022-10-12T19:51:11.995Z,101873.28
2022-10-12T19:53:40.802Z,101870.75
2022-10-12T19:56:10.340Z,101875.28
2022-10-12T19:58:38.066Z,101873.69
2022-10-12T20:01:08.629Z,101872.13
2022-10-12T20:03:36.881Z,101870.63
2022-10-12T20:06:07.866Z,101871.69
2022-10-12T20:08:36.350Z,101874.44
2022-10-12T20:11:04.087Z,101874.63
2022-10-12T20:13:32.151Z,101872.94
2022-10-12T20:16:00.095Z,101880.13
2022-10-12T20:18:30.487Z,101880.13
2022-10-12T20:20:58.488Z,101870.41
2022-10-12T20:23:26.236Z,101872.09
2022-10-12T20:25:55.165Z,101873.78
2022-10-12T20:28:23.616Z,101873.88
2022-10-12T20:30:51.624Z,101871.25
2022-10-12T20:33:19.301Z,101863.41
2022-10-12T20:35:49.274Z,101869.56
2022-10-12T20:38:17.486Z,101867.88
2022-10-12T20:40:45.862Z,101865.22
2022-10-12T20:43:13.757Z,101848.38
2022-10-12T20:45:41.458Z,101853.66
2022-10-12T20:48:09.686Z,101850.06
2022-10-12T20:50:38.289Z,101850.81
2022-10-12T20:53:07.754Z,101842.03
2022-10-12T20:55:35.424Z,101838.41
2022-10-12T20:58:03.091Z,101838.41
2022-10-12T21:00:30.982Z,101835.75
2022-10-12T21:02:58.810Z,101837.47
2022-10-12T21:05:26.526Z,101830.34
2022-10-12T21:07:54.222Z,101834.81
2022-10-12T21:10:23.293Z,101844.56
2022-10-12T21:12:50.954Z,101833.97
2022-10-12T21:15:18.708Z,101840.94
2022-10-12T21:17:46.402Z,101828.88
2022-10-12T21:20:14.160Z,101841.91
2022-10-12T21:22:41.830Z,101842.88
2022-10-12T21:25:10.042Z,101838.75
2022-10-12T21:27:39.243Z,101838.63
2022-10-12T21:30:07.830Z,101844.03
2022-10-12T21:32:35.578Z,101842.31
2022-10-12T21:35:03.287Z,101847.84
2022-10-12T21:37:30.958Z,101843.28
2022-10-12T21:39:58.596Z,101842.53
2022-10-12T21:42:26.235Z,101840.13
2022-10-12T21:44:55.370Z,101838.41
2022-10-12T21:47:23.012Z,101835.84
2022-10-12T21:49:50.617Z,101830.66
2022-10-12T21:52:18.588Z,101824.63
2022-10-12T21:54:46.976Z,101822.94
2022-10-12T21:57:14.656Z,101828.25
2022-10-12T21:59:42.266Z,101832.75
2022-10-12T22:02:11.269Z,101831.06
2022-10-12T22:04:38.895Z,101832.88
2022-10-12T22:07:06.709Z,101828.66
2022-10-12T22:09:34.322Z,101821.78
2022-10-12T22:12:01.972Z,101826.22
2022-10-12T22:14:29.750Z,101823.75
2022-10-12T22:16:57.385Z,101827.34
2022-10-12T22:19:26.455Z,101819.66
2022-10-12T22:21:54.582Z,101814.53
2022-10-12T22:24:22.371Z,101817.19
2022-10-12T22:26:50.109Z,101820.78
2022-10-12T22:29:17.731Z,101818.34
2022-10-12T22:31:46.375Z,101814.03
2022-10-12T22:34:14.069Z,101815.03
2022-10-12T22:36:44.121Z,101821.19
2022-10-12T22:39:11.839Z,101810.81
2022-10-12T22:41:39.524Z,101805.53
2022-10-12T22:44:07.645Z,101803.00
2022-10-12T22:46:35.336Z,101804.69
2022-10-12T22:49:03.385Z,101806.59
2022-10-12T22:51:32.447Z,101810.09
2022-10-12T22:54:02.138Z,101803.00
2022-10-12T22:56:30.313Z,101804.78
2022-10-12T22:58:59.145Z,101803.00
2022-10-12T23:01:27.378Z,101805.53
2022-10-12T23:03:55.879Z,101807.22
2022-10-12T23:06:23.729Z,101796.63
2022-10-12T23:08:51.468Z,101797.38
2022-10-12T23:11:22.181Z,101797.28
2022-10-12T23:13:50.182Z,101792.94
2022-10-12T23:16:19.764Z,101787.97
2022-10-12T23:18:47.537Z,101788.81
2022-10-12T23:21:16.882Z,101788.59
2022-10-12T23:23:45.925Z,101783.31
2022-10-12T23:26:15.487Z,101791.13
2022-10-12T23:28:44.941Z,101797.28
2022-10-12T23:31:14.374Z,101776.53
2022-10-12T23:33:42.071Z,101785.00
2022-10-12T23:36:12.727Z,101780.56
2022-10-12T23:38:41.382Z,101783.19
2022-10-12T23:41:09.643Z,101778.00
2022-10-12T23:43:37.558Z,101781.31
2022-10-12T23:46:07.050Z,101778.75
2022-10-12T23:48:35.311Z,101776.09
2022-10-12T23:51:03.354Z,101770.94
2022-10-12T23:53:31.027Z,101772.72
2022-10-12T23:55:58.679Z,101772.72
2022-10-12T23:58:26.432Z,101768.28
